createdAt,value
2023-02-27T00:00:54.677Z,93.00
2023-02-27T00:03:23.338Z,93.20
2023-02-27T00:05:51.712Z,93.00
2023-02-27T00:08:23.154Z,92.90
2023-02-27T00:10:53.030Z,92.90
2023-02-27T00:13:21.420Z,92.60
2023-02-27T00:15:51.181Z,93.00
2023-02-27T00:18:19.875Z,93.10
2023-02-27T00:20:48.575Z,93.20
2023-02-27T00:23:16.896Z,93.00
2023-02-27T00:25:45.254Z,93.20
2023-02-27T00:28:15.019Z,93.20
2023-02-27T00:30:43.449Z,93.50
2023-02-27T00:33:11.799Z,93.50
2023-02-27T00:35:42.690Z,93.50
2023-02-27T00:38:11.411Z,93.70
2023-02-27T00:40:39.799Z,93.50
2023-02-27T00:43:08.130Z,93.50
2023-02-27T00:45:37.879Z,93.30
2023-02-27T00:48:06.275Z,93.00
2023-02-27T00:50:34.615Z,93.30
2023-02-27T00:53:02.961Z,93.60
2023-02-27T00:55:31.290Z,93.50
2023-02-27T00:57:59.649Z,93.20
2023-02-27T01:00:28.859Z,93.10
2023-02-27T01:02:58.675Z,93.40
2023-02-27T01:05:27.424Z,93.30
2023-02-27T01:07:55.987Z,93.40
2023-02-27T01:10:24.299Z,93.20
2023-02-27T01:12:52.695Z,93.30
2023-02-27T01:15:21.367Z,93.20
2023-02-27T01:17:49.676Z,93.30
2023-02-27T01:20:19.595Z,93.40
2023-02-27T01:22:47.953Z,93.40
2023-02-27T01:25:16.255Z,93.00
2023-02-27T01:27:44.880Z,93.00
2023-02-27T01:30:15.747Z,93.30
2023-02-27T01:34:04.050Z,93.30
2023-02-27T01:36:34.604Z,93.20
2023-02-27T01:39:02.916Z,93.10
2023-02-27T01:41:31.690Z,92.80
2023-02-27T01:44:03.672Z,93.10
2023-02-27T01:46:33.615Z,93.50
2023-02-27T01:49:07.223Z,93.60
2023-02-27T01:51:43.402Z,93.60
2023-02-27T01:54:13.824Z,93.70
2023-02-27T01:56:43.836Z,93.70
2023-02-27T01:59:13.312Z,93.50
2023-02-27T02:01:41.654Z,93.60
2023-02-27T02:04:17.050Z,93.40
2023-02-27T02:06:52.379Z,93.60
2023-02-27T02:09:23.579Z,93.40
2023-02-27T02:11:52.233Z,93.40
2023-02-27T02:14:20.620Z,93.00
2023-02-27T02:17:13.140Z,93.10
2023-02-27T02:20:45.562Z,93.90
2023-02-27T02:24:24.141Z,93.30
2023-02-27T02:27:06.071Z,93.30
2023-02-27T02:30:29.054Z,93.50
2023-02-27T02:33:36.536Z,93.00
2023-02-27T02:36:52.274Z,93.10
2023-02-27T02:40:04.571Z,93.10
2023-02-27T02:42:38.529Z,93.40
2023-02-27T02:45:18.811Z,93.40
2023-02-27T02:48:01.094Z,93.30
2023-02-27T02:50:37.657Z,93.10
2023-02-27T02:53:14.431Z,93.10
2023-02-27T02:55:47.727Z,93.30
2023-02-27T02:58:23.987Z,93.30
2023-02-27T03:01:00.307Z,93.60
2023-02-27T03:03:33.135Z,93.30
2023-02-27T03:06:06.100Z,93.20
2023-02-27T03:08:40.562Z,93.30
2023-02-27T03:11:10.701Z,93.30
2023-02-27T03:13:44.929Z,93.40
2023-02-27T03:16:17.529Z,93.70
2023-02-27T03:18:53.401Z,93.90
2023-02-27T03:21:32.082Z,93.60
2023-02-27T03:24:05.027Z,93.40
2023-02-27T03:26:39.645Z,93.20
2023-02-27T03:29:11.713Z,93.50
2023-02-27T03:31:46.768Z,93.70
2023-02-27T03:34:23.416Z,93.60
2023-02-27T03:37:01.844Z,93.30
2023-02-27T03:39:43.657Z,93.50
2023-02-27T03:42:25.914Z,93.60
2023-02-27T03:45:19.653Z,93.40
2023-02-27T03:47:48.499Z,93.10
2023-02-27T03:50:17.635Z,92.90
2023-02-27T03:52:46.444Z,92.80
2023-02-27T03:55:18.405Z,93.00
2023-02-27T03:57:51.141Z,92.80
2023-02-27T04:00:22.889Z,93.00
2023-02-27T04:02:53.222Z,93.20
2023-02-27T04:05:25.612Z,93.10
2023-02-27T04:08:22.487Z,92.90
2023-02-27T04:11:17.305Z,93.00
2023-02-27T04:13:56.408Z,93.20
2023-02-27T04:17:09.336Z,93.20
2023-02-27T04:19:56.693Z,92.90
2023-02-27T04:22:36.310Z,93.00
2023-02-27T04:25:29.586Z,93.00
2023-02-27T04:28:06.680Z,93.00
2023-02-27T04:30:47.234Z,93.60
2023-02-27T04:33:26.650Z,93.10
2023-02-27T04:35:59.337Z,93.00
2023-02-27T04:38:32.471Z,92.90
2023-02-27T04:41:06.716Z,93.10
2023-02-27T04:43:38.775Z,93.10
2023-02-27T04:46:13.747Z,92.90
2023-02-27T04:48:50.387Z,93.00
2023-02-27T04:51:23.116Z,93.30
2023-02-27T04:53:57.810Z,93.50
2023-02-27T04:56:32.108Z,92.90
2023-02-27T04:59:03.344Z,93.20
2023-02-27T05:01:39.825Z,93.30
2023-02-27T05:04:12.053Z,93.30
2023-02-27T05:06:44.671Z,93.40
2023-02-27T05:09:19.930Z,93.20
2023-02-27T05:11:56.085Z,93.10
2023-02-27T05:14:32.873Z,93.00
2023-02-27T05:17:09.151Z,92.80
2023-02-27T05:19:41.874Z,93.00
2023-02-27T05:22:25.216Z,93.20
2023-02-27T05:25:00.437Z,93.20
2023-02-27T05:27:38.561Z,93.10
2023-02-27T05:30:14.224Z,92.70
2023-02-27T05:32:49.078Z,92.70
2023-02-27T05:35:27.441Z,92.70
2023-02-27T05:38:06.451Z,92.70
2023-02-27T05:40:39.401Z,92.60
2023-02-27T05:43:14.321Z,93.00
2023-02-27T05:45:46.989Z,92.70
2023-02-27T05:48:22.574Z,92.80
2023-02-27T05:50:53.653Z,92.90
2023-02-27T05:53:27.104Z,93.00
2023-02-27T05:55:58.499Z,93.20
2023-02-27T05:58:31.384Z,93.10
2023-02-27T06:01:02.409Z,93.00
2023-02-27T06:03:36.005Z,92.90
2023-02-27T06:06:08.557Z,92.90
2023-02-27T06:08:38.523Z,93.30
2023-02-27T06:11:07.384Z,93.40
2023-02-27T06:13:35.755Z,93.50
2023-02-27T06:16:04.292Z,93.20
2023-02-27T06:18:33.993Z,93.30
2023-02-27T06:21:02.292Z,93.30
2023-02-27T06:23:31.343Z,93.00
2023-02-27T06:25:59.839Z,93.20
2023-02-27T06:28:28.270Z,92.90
2023-02-27T06:30:57.550Z,92.80
2023-02-27T06:33:26.993Z,92.90
2023-02-27T06:35:56.773Z,92.80
2023-02-27T06:38:25.144Z,92.80
2023-02-27T06:40:53.816Z,92.50
2023-02-27T06:43:22.905Z,92.50
2023-02-27T06:45:51.363Z,92.70
2023-02-27T06:48:19.733Z,92.60
2023-02-27T06:50:52.742Z,92.80
2023-02-27T06:53:22.530Z,92.70
2023-02-27T06:55:50.977Z,92.60
2023-02-27T06:58:20.098Z,92.60
2023-02-27T07:00:48.579Z,92.70
2023-02-27T07:03:16.889Z,92.40
2023-02-27T07:05:46.121Z,92.40
2023-02-27T07:08:17.666Z,92.50
2023-02-27T07:10:49.214Z,92.70
2023-02-27T07:13:19.505Z,92.60
2023-02-27T07:15:48.953Z,92.60
2023-02-27T07:18:17.432Z,92.90
2023-02-27T07:20:45.815Z,92.80
2023-02-27T07:23:14.155Z,92.90
2023-02-27T07:25:42.527Z,92.70
2023-02-27T07:28:12.248Z,92.60
2023-02-27T07:30:41.477Z,92.70
2023-02-27T07:33:10.155Z,92.60
2023-02-27T07:35:38.803Z,92.70
2023-02-27T07:38:07.200Z,92.50
2023-02-27T07:40:35.568Z,92.70
2023-02-27T07:43:03.960Z,92.40
2023-02-27T07:45:33.778Z,92.30
2023-02-27T07:48:02.628Z,92.30
2023-02-27T07:50:30.990Z,92.60
2023-02-27T07:52:59.330Z,92.40
2023-02-27T07:55:27.820Z,92.40
2023-02-27T07:57:56.162Z,92.60
2023-02-27T08:00:24.626Z,92.50
2023-02-27T08:02:54.341Z,92.60
2023-02-27T08:05:22.742Z,92.50
2023-02-27T08:07:51.088Z,92.40
2023-02-27T08:10:19.876Z,92.50
2023-02-27T08:12:48.229Z,92.80
2023-02-27T08:15:17.540Z,92.60
2023-02-27T08:17:47.186Z,92.50
2023-02-27T08:20:17.480Z,92.50
2023-02-27T08:22:45.828Z,92.50
2023-02-27T08:25:14.200Z,92.40
2023-02-27T08:27:42.645Z,92.40
2023-02-27T08:30:13.877Z,92.30
2023-02-27T08:32:42.924Z,92.40
2023-02-27T08:35:11.542Z,92.30
2023-02-27T08:37:41.289Z,92.20
2023-02-27T08:40:11.844Z,92.00
2023-02-27T08:42:40.415Z,92.20
2023-02-27T08:45:10.378Z,92.10
2023-02-27T08:47:38.737Z,92.10
2023-02-27T08:50:08.383Z,92.00
2023-02-27T08:52:36.827Z,92.30
2023-02-27T08:55:08.809Z,92.10
2023-02-27T08:57:39.873Z,91.90
2023-02-27T09:00:10.887Z,91.70
2023-02-27T09:02:39.446Z,92.30
2023-02-27T09:05:08.892Z,91.90
2023-02-27T09:07:37.398Z,92.10
2023-02-27T09:10:08.955Z,92.00
2023-02-27T09:12:37.621Z,92.00
2023-02-27T09:15:07.243Z,91.80
2023-02-27T09:17:35.600Z,92.10
2023-02-27T09:20:04.941Z,92.20
2023-02-27T09:22:33.804Z,92.10
2023-02-27T09:25:02.271Z,92.30
2023-02-27T09:27:32.098Z,91.90
2023-02-27T09:30:00.611Z,91.90
2023-02-27T09:32:29.309Z,92.30
2023-02-27T09:34:58.371Z,91.80
2023-02-27T09:37:26.900Z,91.80
2023-02-27T09:39:55.376Z,92.10
2023-02-27T09:42:26.884Z,91.70
2023-02-27T09:44:59.544Z,91.80
2023-02-27T09:47:32.981Z,91.70
2023-02-27T09:50:06.033Z,91.70
2023-02-27T09:52:38.182Z,91.90
2023-02-27T09:55:08.588Z,91.80
2023-02-27T09:57:47.449Z,91.60
2023-02-27T10:00:37.584Z,91.60
2023-02-27T10:03:26.306Z,91.80
2023-02-27T10:06:11.625Z,91.80
2023-02-27T10:08:47.369Z,91.70
2023-02-27T10:11:21.760Z,91.60
2023-02-27T10:14:00.593Z,91.50
2023-02-27T10:16:33.584Z,91.60
2023-02-27T10:19:05.694Z,91.50
2023-02-27T10:21:38.568Z,91.60
2023-02-27T10:24:13.632Z,91.60
2023-02-27T10:26:45.361Z,91.80
2023-02-27T10:29:22.670Z,91.40
2023-02-27T10:32:01.727Z,91.30
2023-02-27T10:34:31.712Z,91.30
2023-02-27T10:37:04.381Z,91.10
2023-02-27T10:39:47.363Z,91.20
2023-02-27T10:42:17.606Z,91.20
2023-02-27T10:44:46.285Z,91.20
2023-02-27T10:47:17.670Z,91.30
2023-02-27T10:49:46.040Z,91.10
2023-02-27T10:52:16.718Z,90.90
2023-02-27T10:54:46.556Z,91.00
2023-02-27T10:57:28.577Z,91.00
2023-02-27T10:59:59.467Z,90.90
2023-02-27T11:02:37.244Z,91.10
2023-02-27T11:05:08.778Z,90.80
2023-02-27T11:07:39.995Z,90.70
2023-02-27T11:10:20.152Z,90.70
2023-02-27T11:13:06.619Z,90.70
2023-02-27T11:15:36.674Z,90.70
2023-02-27T11:18:27.232Z,90.80
2023-02-27T11:21:11.317Z,90.50
2023-02-27T11:23:50.349Z,91.00
2023-02-27T11:26:24.074Z,90.80
2023-02-27T11:29:08.151Z,90.50
2023-02-27T11:31:38.309Z,90.30
2023-02-27T11:34:15.642Z,90.40
2023-02-27T11:36:46.779Z,90.20
2023-02-27T11:39:30.602Z,90.40
2023-02-27T11:42:08.061Z,90.10
2023-02-27T11:44:50.043Z,90.30
2023-02-27T11:47:25.305Z,90.00
2023-02-27T11:50:31.578Z,90.20
2023-02-27T11:53:28.432Z,90.00
2023-02-27T11:55:59.885Z,90.30
2023-02-27T11:58:34.323Z,90.30
2023-02-27T12:01:07.814Z,90.20
2023-02-27T12:03:48.633Z,90.00
2023-02-27T12:06:21.875Z,89.50
2023-02-27T12:08:56.168Z,89.70
2023-02-27T12:11:29.948Z,89.60
2023-02-27T12:14:05.286Z,89.60
2023-02-27T12:16:40.687Z,89.60
2023-02-27T12:19:19.105Z,90.00
2023-02-27T12:21:55.220Z,90.00
2023-02-27T12:24:27.250Z,89.30
2023-02-27T12:27:10.252Z,89.50
2023-02-27T12:29:45.518Z,89.10
2023-02-27T12:32:21.971Z,89.00
2023-02-27T12:34:54.934Z,89.30
2023-02-27T12:37:26.769Z,89.70
2023-02-27T12:39:57.835Z,89.70
2023-02-27T12:43:11.084Z,89.50
2023-02-27T12:45:57.366Z,89.30
2023-02-27T12:48:54.622Z,89.30
2023-02-27T12:51:39.373Z,89.00
2023-02-27T12:54:23.880Z,89.00
2023-02-27T12:57:07.557Z,88.50
2023-02-27T12:59:52.004Z,88.50
2023-02-27T13:02:43.945Z,88.50
2023-02-27T13:05:38.303Z,88.50
2023-02-27T13:08:40.815Z,88.30
2023-02-27T13:11:24.160Z,87.80
2023-02-27T13:13:58.152Z,88.00
2023-02-27T13:16:33.056Z,87.80
2023-02-27T13:19:15.247Z,87.70
2023-02-27T13:21:51.273Z,87.30
2023-02-27T13:24:28.006Z,87.60
2023-02-27T13:27:03.199Z,87.00
2023-02-27T13:29:39.462Z,87.00
2023-02-27T13:32:41.368Z,86.70
2023-02-27T13:35:26.710Z,87.20
2023-02-27T13:37:58.445Z,86.90
2023-02-27T13:40:34.151Z,86.90
2023-02-27T13:43:28.621Z,86.70
2023-02-27T13:46:00.131Z,87.30
2023-02-27T13:48:46.763Z,87.70
2023-02-27T13:51:46.877Z,87.00
2023-02-27T13:54:28.802Z,87.60
2023-02-27T13:57:21.417Z,86.90
2023-02-27T14:00:01.524Z,86.70
2023-02-27T14:02:56.516Z,87.30
2023-02-27T14:05:34.991Z,87.00
2023-02-27T14:08:11.500Z,86.90
2023-02-27T14:10:43.013Z,87.00
2023-02-27T14:14:04.618Z,86.90
2023-02-27T14:17:03.660Z,86.90
2023-02-27T14:19:59.353Z,87.00
2023-02-27T14:23:18.492Z,86.50
2023-02-27T14:25:49.139Z,86.70
2023-02-27T14:28:26.746Z,86.70
2023-02-27T14:31:01.252Z,86.00
2023-02-27T14:33:41.417Z,86.30
2023-02-27T14:36:17.183Z,85.60
2023-02-27T14:38:45.888Z,85.60
2023-02-27T14:41:32.092Z,85.10
2023-02-27T14:44:00.764Z,85.10
2023-02-27T14:46:32.008Z,85.70
2023-02-27T14:49:04.392Z,85.60
2023-02-27T14:51:35.821Z,85.50
2023-02-27T14:54:07.530Z,85.20
2023-02-27T14:56:35.962Z,84.80
2023-02-27T14:59:05.242Z,85.20
2023-02-27T15:01:37.901Z,85.20
2023-02-27T15:04:08.569Z,84.60
2023-02-27T15:06:44.660Z,84.10
2023-02-27T15:09:24.170Z,84.60
2023-02-27T15:12:03.664Z,84.40
2023-02-27T15:14:36.201Z,85.10
2023-02-27T15:17:05.190Z,85.90
2023-02-27T15:19:35.289Z,84.70
2023-02-27T15:22:05.704Z,84.30
2023-02-27T15:24:49.423Z,85.00
2023-02-27T15:27:21.179Z,85.70
2023-02-27T15:29:53.016Z,84.80
2023-02-27T15:32:28.444Z,84.50
2023-02-27T15:35:00.977Z,84.20
2023-02-27T15:37:32.289Z,84.00
2023-02-27T15:40:02.532Z,84.50
2023-02-27T15:42:33.568Z,84.30
2023-02-27T15:45:02.469Z,84.30
2023-02-27T15:47:33.123Z,85.00
2023-02-27T15:50:11.576Z,84.60
2023-02-27T15:52:44.672Z,83.90
2023-02-27T15:55:17.133Z,84.80
2023-02-27T15:58:00.670Z,84.20
2023-02-27T16:00:32.512Z,84.30
2023-02-27T16:03:01.554Z,83.80
2023-02-27T16:05:37.580Z,83.80
2023-02-27T16:08:07.609Z,83.30
2023-02-27T16:10:39.092Z,83.60
2023-02-27T16:13:35.922Z,83.30
2023-02-27T16:16:07.352Z,83.30
2023-02-27T16:18:39.148Z,84.00
2023-02-27T16:21:15.603Z,83.50
2023-02-27T16:23:45.054Z,83.10
2023-02-27T16:26:32.626Z,82.50
2023-02-27T16:29:04.151Z,82.80
2023-02-27T16:31:35.126Z,82.50
2023-02-27T16:34:15.301Z,81.80
2023-02-27T16:36:54.742Z,82.00
2023-02-27T16:39:23.129Z,82.80
2023-02-27T16:41:53.772Z,82.10
2023-02-27T16:44:24.392Z,82.70
2023-02-27T16:46:53.445Z,82.50
2023-02-27T16:49:24.954Z,81.60
2023-02-27T16:51:54.816Z,81.70
2023-02-27T16:54:24.293Z,82.10
2023-02-27T16:56:52.868Z,81.60
2023-02-27T16:59:31.350Z,81.50
2023-02-27T17:02:02.633Z,82.00
2023-02-27T17:04:31.621Z,81.80
2023-02-27T17:07:06.365Z,80.60
2023-02-27T17:09:35.217Z,81.20
2023-02-27T17:12:03.533Z,81.30
2023-02-27T17:14:31.889Z,81.20
2023-02-27T17:17:00.238Z,80.60
2023-02-27T17:19:31.642Z,80.40
2023-02-27T17:22:01.939Z,81.70
2023-02-27T17:24:34.927Z,80.10
2023-02-27T17:27:03.263Z,80.40
2023-02-27T17:29:31.713Z,80.70
2023-02-27T17:32:02.277Z,80.10
2023-02-27T17:34:30.968Z,80.30
2023-02-27T17:37:00.779Z,79.80
2023-02-27T17:39:33.503Z,80.20
2023-02-27T17:42:01.821Z,80.20
2023-02-27T17:44:30.155Z,80.50
2023-02-27T17:46:58.640Z,80.70
2023-02-27T17:49:27.150Z,81.20
2023-02-27T17:51:57.630Z,80.20
2023-02-27T17:54:27.465Z,81.50
2023-02-27T17:56:55.812Z,80.90
2023-02-27T17:59:24.161Z,81.00
2023-02-27T18:01:54.596Z,81.50
2023-02-27T18:04:23.842Z,81.30
2023-02-27T18:06:57.957Z,83.40
2023-02-27T18:09:27.781Z,84.70
2023-02-27T18:11:56.379Z,82.60
2023-02-27T18:14:24.872Z,84.20
2023-02-27T18:16:56.300Z,84.20
2023-02-27T18:19:25.430Z,82.20
2023-02-27T18:21:56.248Z,83.70
2023-02-27T18:24:24.644Z,84.50
2023-02-27T18:26:54.579Z,84.10
2023-02-27T18:29:23.244Z,83.40
2023-02-27T18:31:53.666Z,84.70
2023-02-27T18:34:22.561Z,85.30
2023-02-27T18:36:51.921Z,85.70
2023-02-27T18:39:20.614Z,86.10
2023-02-27T18:41:48.941Z,84.60
2023-02-27T18:44:18.655Z,84.30
2023-02-27T18:46:49.508Z,84.60
2023-02-27T18:49:17.954Z,84.60
2023-02-27T18:51:46.434Z,85.10
2023-02-27T18:54:15.267Z,85.70
2023-02-27T18:56:43.634Z,85.80
2023-02-27T18:59:13.567Z,86.10
2023-02-27T19:01:43.373Z,85.30
2023-02-27T19:04:11.697Z,86.00
2023-02-27T19:06:42.296Z,85.80
2023-02-27T19:09:13.344Z,86.00
2023-02-27T19:11:41.855Z,86.70
2023-02-27T19:14:14.012Z,86.50
2023-02-27T19:16:44.306Z,87.40
2023-02-27T19:19:12.799Z,86.60
2023-02-27T19:21:41.334Z,86.50
2023-02-27T19:24:13.923Z,84.70
2023-02-27T19:26:42.436Z,86.10
2023-02-27T19:29:11.038Z,84.00
2023-02-27T19:31:39.464Z,85.10
2023-02-27T19:34:09.266Z,85.90
2023-02-27T19:36:38.185Z,85.90
2023-02-27T19:39:06.608Z,85.60
2023-02-27T19:41:35.128Z,85.10
2023-02-27T19:44:03.507Z,84.90
2023-02-27T19:46:34.813Z,84.70
2023-02-27T19:49:08.305Z,86.00
2023-02-27T19:51:36.833Z,86.00
2023-02-27T19:54:05.458Z,84.80
2023-02-27T19:56:33.811Z,85.40
2023-02-27T19:59:02.597Z,85.30
2023-02-27T20:01:34.451Z,85.10
2023-02-27T20:04:03.498Z,85.60
2023-02-27T20:06:41.898Z,86.10
2023-02-27T20:09:14.432Z,85.90
2023-02-27T20:11:43.512Z,86.90
2023-02-27T20:14:13.902Z,86.40
2023-02-27T20:16:43.452Z,86.40
2023-02-27T20:19:15.103Z,87.00
2023-02-27T20:21:46.263Z,86.40
2023-02-27T20:24:16.423Z,86.00
2023-02-27T20:26:48.825Z,86.20
2023-02-27T20:29:20.242Z,85.70
2023-02-27T20:31:52.655Z,86.40
2023-02-27T20:34:25.555Z,86.20
2023-02-27T20:36:57.642Z,86.20
2023-02-27T20:39:27.988Z,85.70
2023-02-27T20:41:56.338Z,86.00
2023-02-27T20:44:24.702Z,86.40
2023-02-27T20:46:53.219Z,86.10
2023-02-27T20:49:22.776Z,86.30
2023-02-27T20:51:51.103Z,86.40
2023-02-27T20:54:21.103Z,86.50
2023-02-27T20:56:52.860Z,87.00
2023-02-27T20:59:23.454Z,86.90
2023-02-27T21:01:54.789Z,87.00
2023-02-27T21:04:29.241Z,87.70
2023-02-27T21:06:57.593Z,87.50
2023-02-27T21:09:27.335Z,87.40
2023-02-27T21:11:56.143Z,88.20
2023-02-27T21:14:24.457Z,87.80
2023-02-27T21:16:52.784Z,87.20
2023-02-27T21:19:21.767Z,87.50
2023-02-27T21:21:50.096Z,87.10
2023-02-27T21:24:18.968Z,87.20
2023-02-27T21:26:49.282Z,88.30
2023-02-27T21:29:20.470Z,88.20
2023-02-27T21:31:50.876Z,89.10
2023-02-27T21:34:22.278Z,88.80
2023-02-27T21:36:52.059Z,88.70
2023-02-27T21:39:22.937Z,88.20
2023-02-27T21:41:53.239Z,88.30
2023-02-27T21:44:25.028Z,88.60
2023-02-27T21:46:53.954Z,89.10
2023-02-27T21:49:25.183Z,88.20
2023-02-27T21:51:53.587Z,88.80
2023-02-27T21:54:22.155Z,88.40
2023-02-27T21:56:52.099Z,88.60
2023-02-27T21:59:21.760Z,88.60
2023-02-27T22:01:50.197Z,88.70
2023-02-27T22:04:20.624Z,88.60
2023-02-27T22:06:50.128Z,88.40
2023-02-27T22:09:19.337Z,88.60
2023-02-27T22:11:48.246Z,88.80
2023-02-27T22:14:18.138Z,89.10
2023-02-27T22:16:47.121Z,89.00
2023-02-27T22:19:19.968Z,89.30
2023-02-27T22:21:48.886Z,89.50
2023-02-27T22:24:17.764Z,89.10
2023-02-27T22:26:47.768Z,88.20
2023-02-27T22:29:18.202Z,88.00
2023-02-27T22:31:47.114Z,88.10
2023-02-27T22:34:19.379Z,88.00
2023-02-27T22:36:52.287Z,88.80
2023-02-27T22:39:21.789Z,89.00
2023-02-27T22:41:50.136Z,89.50
2023-02-27T22:44:20.370Z,89.00
2023-02-27T22:46:50.680Z,88.50
2023-02-27T22:49:22.312Z,88.90
2023-02-27T22:51:51.990Z,89.60
2023-02-27T22:54:22.867Z,89.70
2023-02-27T22:56:52.626Z,89.80
2023-02-27T22:59:23.207Z,89.90
2023-02-27T23:01:54.035Z,90.00
2023-02-27T23:04:22.553Z,89.50
2023-02-27T23:06:52.801Z,89.90
2023-02-27T23:09:24.188Z,90.20
2023-02-27T23:11:53.250Z,90.40
2023-02-27T23:14:23.723Z,90.20
2023-02-27T23:16:52.145Z,90.20
2023-02-27T23:19:23.842Z,90.00
2023-02-27T23:21:52.604Z,90.30
2023-02-27T23:24:21.282Z,90.30
2023-02-27T23:26:52.420Z,90.00
2023-02-27T23:29:22.824Z,90.20
2023-02-27T23:31:54.278Z,90.30
2023-02-27T23:34:22.836Z,89.90
2023-02-27T23:36:51.462Z,90.10
2023-02-27T23:39:20.659Z,90.10
2023-02-27T23:41:49.400Z,90.00
2023-02-27T23:44:17.790Z,89.70
2023-02-27T23:46:47.512Z,89.70
2023-02-27T23:49:15.924Z,89.50
2023-02-27T23:51:44.420Z,89.40
2023-02-27T23:54:12.946Z,89.70
2023-02-27T23:56:41.284Z,90.20
2023-02-27T23:59:09.737Z,90.30
